Time;durP1;ratioP1;P1;durP2;ratioP2;P2;SDS_P1;SDS_P2;PMS_P1;PMS_P2;Temp;Humidity;BMP_temperature;BMP_pressure;BME280_temperature;BME280_humidity;BME280_pressure;Samples;Min_cycle;Max_cycle;Signal;HPM_P1;HPM_P2
2023/08/15 00:01:13;;;;;;;;;;;21.30;73.10;;;;;;5092626;28;19981;-65
2023/08/15 00:03:39;;;;;;;;;;;21.30;73.00;;;;;;5091364;28;19943;-66
2023/08/15 00:06:04;;;;;;;;;;;21.30;73.00;;;;;;5092764;28;19924;-66
2023/08/15 00:08:30;;;;;;;;;;;21.30;73.00;;;;;;5092263;28;19965;-66
2023/08/15 00:10:55;;;;;;;;;;;21.30;73.00;;;;;;5093890;28;19920;-66
2023/08/15 00:13:21;;;;;;;;;;;21.30;73.10;;;;;;5092269;28;20014;-65
2023/08/15 00:15:46;;;;;;;;;;;21.20;73.00;;;;;;5092584;28;19970;-65
2023/08/15 00:18:12;;;;;;;;;;;21.30;73.10;;;;;;5092172;28;19924;-70
2023/08/15 00:20:37;;;;;;;;;;;21.30;73.10;;;;;;5093494;28;20007;-65
2023/08/15 00:23:03;;;;;;;;;;;21.30;73.10;;;;;;5091822;28;19924;-65
2023/08/15 00:25:28;;;;;;;;;;;21.30;73.10;;;;;;5091999;28;19924;-66
2023/08/15 00:27:54;;;;;;;;;;;21.20;73.00;;;;;;5092034;28;19920;-66
2023/08/15 00:30:20;;;;;;;;;;;21.30;73.10;;;;;;5092311;28;19972;-65
2023/08/15 00:32:46;;;;;;;;;;;21.20;73.00;;;;;;5092231;28;20029;-66
2023/08/15 00:35:11;;;;;;;;;;;21.20;73.00;;;;;;5091989;28;19920;-66
2023/08/15 00:37:37;;;;;;;;;;;21.30;73.10;;;;;;5092221;28;19955;-66
2023/08/15 00:40:02;;;;;;;;;;;21.20;73.00;;;;;;5092092;28;19924;-65
2023/08/15 00:42:28;;;;;;;;;;;21.20;73.10;;;;;;5093106;28;19973;-65
2023/08/15 00:44:53;;;;;;;;;;;21.30;73.20;;;;;;5091748;28;20271;-66
2023/08/15 00:47:19;;;;;;;;;;;21.20;73.00;;;;;;5092118;28;19920;-66
2023/08/15 00:49:45;;;;;;;;;;;21.20;73.00;;;;;;5091704;28;19985;-66
2023/08/15 00:52:12;;;;;;;;;;;21.20;73.10;;;;;;5092051;28;19920;-66
2023/08/15 00:54:38;;;;;;;;;;;21.20;73.10;;;;;;5092887;28;20466;-66
2023/08/15 00:57:05;;;;;;;;;;;21.20;73.00;;;;;;5092828;28;19972;-66
2023/08/15 00:59:30;;;;;;;;;;;21.20;73.00;;;;;;5091931;28;20174;-66
2023/08/15 01:01:58;;;;;;;;;;;21.20;73.10;;;;;;5091816;28;20347;-65
2023/08/15 01:04:24;;;;;;;;;;;21.20;73.10;;;;;;5091462;28;19959;-65
2023/08/15 01:06:50;;;;;;;;;;;21.20;73.00;;;;;;5090861;28;19967;-66
2023/08/15 01:09:15;;;;;;;;;;;21.20;73.10;;;;;;5091365;28;19928;-66
2023/08/15 01:11:50;;;;;;;;;;;21.20;73.10;;;;;;5091361;28;19978;-65
2023/08/15 01:14:19;;;;;;;;;;;21.20;73.10;;;;;;5091334;28;20015;-66
2023/08/15 01:16:45;;;;;;;;;;;21.20;73.10;;;;;;5091813;28;20151;-66
2023/08/15 01:21:54;;;;;;;;;;;21.20;73.10;;;;;;5110348;27;19912;-65
2023/08/15 01:24:19;;;;;;;;;;;21.20;73.10;;;;;;5109054;28;19931;-66
2023/08/15 01:26:45;;;;;;;;;;;21.20;73.10;;;;;;5109179;28;20014;-65
2023/08/15 01:29:10;;;;;;;;;;;21.20;73.10;;;;;;5108975;28;20294;-66
2023/08/15 01:31:38;;;;;;;;;;;21.20;73.10;;;;;;5110090;28;19920;-66
2023/08/15 01:34:10;;;;;;;;;;;21.20;73.10;;;;;;5108822;28;19931;-65
2023/08/15 01:36:38;;;;;;;;;;;21.20;73.10;;;;;;5108898;28;19920;-65
2023/08/15 01:39:05;;;;;;;;;;;21.20;73.10;;;;;;5109000;28;19973;-65
2023/08/15 01:41:33;;;;;;;;;;;21.20;73.10;;;;;;5110032;28;20338;-65
2023/08/15 01:43:59;;;;;;;;;;;21.20;73.10;;;;;;5108584;28;19924;-66
2023/08/15 01:46:24;;;;;;;;;;;21.20;73.10;;;;;;5108957;28;19972;-66
2023/08/15 01:48:50;;;;;;;;;;;21.20;73.20;;;;;;5109903;28;19927;-65
2023/08/15 01:51:15;;;;;;;;;;;21.20;73.10;;;;;;5109618;28;19920;-65
2023/08/15 01:53:41;;;;;;;;;;;21.20;73.10;;;;;;5108976;28;20015;-65
2023/08/15 01:56:06;;;;;;;;;;;21.20;73.10;;;;;;5108792;28;19920;-66
2023/08/15 01:58:32;;;;;;;;;;;21.20;73.20;;;;;;5109588;28;20274;-66
2023/08/15 02:00:58;;;;;;;;;;;21.20;73.20;;;;;;5109367;28;19924;-66
2023/08/15 02:03:23;;;;;;;;;;;21.10;73.10;;;;;;5108122;28;19924;-66
2023/08/15 02:05:49;;;;;;;;;;;21.20;73.20;;;;;;5108208;28;19926;-65
2023/08/15 02:08:14;;;;;;;;;;;21.20;73.20;;;;;;5107976;28;20298;-70
2023/08/15 02:10:39;;;;;;;;;;;21.20;73.20;;;;;;5108167;28;19920;-70
2023/08/15 02:13:05;;;;;;;;;;;21.20;73.20;;;;;;5109415;28;19927;-65
2023/08/15 02:15:30;;;;;;;;;;;21.10;73.20;;;;;;5109408;28;19920;-66
2023/08/15 02:17:56;;;;;;;;;;;21.10;73.20;;;;;;5108196;28;19973;-70
2023/08/15 02:20:21;;;;;;;;;;;21.20;73.20;;;;;;5107725;28;19931;-65
2023/08/15 02:22:47;;;;;;;;;;;21.10;73.20;;;;;;5107746;28;19926;-65
2023/08/15 02:25:12;;;;;;;;;;;21.10;73.20;;;;;;5108143;28;19958;-70
2023/08/15 02:27:38;;;;;;;;;;;21.20;73.30;;;;;;5109024;28;19928;-66
2023/08/15 02:30:05;;;;;;;;;;;21.10;73.20;;;;;;5107798;28;19955;-66
2023/08/15 02:32:31;;;;;;;;;;;21.10;73.20;;;;;;5132259;27;19920;-66
2023/08/15 02:34:56;;;;;;;;;;;21.10;73.20;;;;;;5094323;28;19920;-66
2023/08/15 02:37:22;;;;;;;;;;;21.10;73.20;;;;;;5094326;28;19920;-66
2023/08/15 02:39:47;;;;;;;;;;;21.10;73.30;;;;;;5094073;28;20009;-65
2023/08/15 02:42:13;;;;;;;;;;;21.10;73.30;;;;;;5093816;28;19920;-66
2023/08/15 02:44:38;;;;;;;;;;;21.10;73.30;;;;;;5093889;28;19920;-65
2023/08/15 02:47:04;;;;;;;;;;;21.10;73.30;;;;;;5095413;28;19927;-65
2023/08/15 02:49:29;;;;;;;;;;;21.10;73.30;;;;;;5093992;28;19924;-66
2023/08/15 02:51:55;;;;;;;;;;;21.10;73.30;;;;;;5093979;28;20332;-65
2023/08/15 02:54:20;;;;;;;;;;;21.10;73.30;;;;;;5093846;28;19999;-66
2023/08/15 02:56:46;;;;;;;;;;;21.10;73.30;;;;;;5093668;28;19924;-66
2023/08/15 02:59:11;;;;;;;;;;;21.10;73.40;;;;;;5094940;28;19978;-66
2023/08/15 03:01:37;;;;;;;;;;;21.10;74.10;;;;;;5093377;28;19928;-65
2023/08/15 03:04:03;;;;;;;;;;;21.10;73.40;;;;;;5093884;28;20267;-66
2023/08/15 03:06:28;;;;;;;;;;;21.10;73.40;;;;;;5093778;28;19993;-65
2023/08/15 03:08:54;;;;;;;;;;;21.10;73.40;;;;;;5094617;28;20160;-66
2023/08/15 03:11:19;;;;;;;;;;;21.10;73.40;;;;;;5094516;28;19920;-66
2023/08/15 03:13:45;;;;;;;;;;;21.10;73.40;;;;;;5093246;28;19920;-66
2023/08/15 03:16:10;;;;;;;;;;;21.10;73.50;;;;;;5093726;28;20069;-66
2023/08/15 03:18:36;;;;;;;;;;;21.10;73.50;;;;;;5093214;28;20533;-66
2023/08/15 03:21:02;;;;;;;;;;;21.10;73.50;;;;;;5092893;28;20006;-65
2023/08/15 03:23:28;;;;;;;;;;;21.10;73.50;;;;;;5094379;28;19927;-65
2023/08/15 03:25:58;;;;;;;;;;;21.10;74.30;;;;;;5093373;28;20286;-71
2023/08/15 03:28:23;;;;;;;;;;;21.10;73.50;;;;;;5094834;28;20276;-66
2023/08/15 03:30:49;;;;;;;;;;;21.10;73.50;;;;;;5094210;28;19927;-66
2023/08/15 03:33:15;;;;;;;;;;;21.10;73.50;;;;;;5093236;28;19927;-71
2023/08/15 03:35:45;;;;;;;;;;;21.10;73.50;;;;;;5092888;28;19927;-66
2023/08/15 03:38:12;;;;;;;;;;;21.10;73.50;;;;;;5093280;28;19920;-66
2023/08/15 03:40:38;;;;;;;;;;;21.10;73.60;;;;;;5092693;28;20379;-66
2023/08/15 03:43:03;;;;;;;;;;;21.10;73.60;;;;;;5092021;28;19926;-66
2023/08/15 03:45:29;;;;;;;;;;;21.10;74.30;;;;;;5093665;28;19920;-66
2023/08/15 03:47:55;;;;;;;;;;;21.10;73.60;;;;;;5094055;28;20383;-66
2023/08/15 03:50:20;;;;;;;;;;;21.10;73.60;;;;;;5093942;28;19965;-65
2023/08/15 03:52:46;;;;;;;;;;;21.10;73.70;;;;;;5093924;28;20381;-66
2023/08/15 03:55:12;;;;;;;;;;;21.10;73.70;;;;;;5093687;28;19973;-65
2023/08/15 03:57:38;;;;;;;;;;;21.10;73.70;;;;;;5093953;28;19981;-66
2023/08/15 04:00:05;;;;;;;;;;;21.10;73.70;;;;;;5092546;28;20333;-66
2023/08/15 04:02:30;;;;;;;;;;;21.10;73.70;;;;;;5092555;28;20375;-66
2023/08/15 04:04:56;;;;;;;;;;;21.10;73.70;;;;;;5092623;28;19920;-65
2023/08/15 04:07:21;;;;;;;;;;;21.10;73.70;;;;;;5126767;27;19927;-65
2023/08/15 04:09:47;;;;;;;;;;;21.10;73.70;;;;;;5093544;28;19926;-66
2023/08/15 04:12:12;;;;;;;;;;;21.10;73.70;;;;;;5092683;28;19924;-66
2023/08/15 04:14:38;;;;;;;;;;;21.10;73.80;;;;;;5092474;28;20014;-65
2023/08/15 04:17:04;;;;;;;;;;;21.10;73.80;;;;;;5092069;28;20386;-65
2023/08/15 04:19:29;;;;;;;;;;;21.10;73.80;;;;;;5092875;28;19924;-65
2023/08/15 04:21:55;;;;;;;;;;;21.10;73.80;;;;;;5095351;28;19969;-65
2023/08/15 04:24:20;;;;;;;;;;;21.10;73.80;;;;;;5095343;28;19920;-66
2023/08/15 04:26:46;;;;;;;;;;;21.10;73.80;;;;;;5113432;28;19920;-65
2023/08/15 04:29:11;;;;;;;;;;;21.10;73.80;;;;;;5095633;28;19998;-65
2023/08/15 04:31:37;;;;;;;;;;;21.10;73.80;;;;;;5113315;28;19920;-65
2023/08/15 04:34:02;;;;;;;;;;;21.10;73.80;;;;;;5113624;28;19966;-65
2023/08/15 04:36:28;;;;;;;;;;;21.10;73.80;;;;;;5095428;28;19920;-70
2023/08/15 04:38:54;;;;;;;;;;;21.10;73.90;;;;;;5095142;28;19920;-65
2023/08/15 04:41:19;;;;;;;;;;;21.00;73.90;;;;;;5095040;28;19920;-66
2023/08/15 04:43:44;;;;;;;;;;;21.10;73.90;;;;;;5113178;28;19924;-65
2023/08/15 04:46:10;;;;;;;;;;;21.00;73.90;;;;;;5095262;28;19924;-65
2023/08/15 04:48:35;;;;;;;;;;;21.10;74.00;;;;;;5095267;28;19920;-65
2023/08/15 04:51:01;;;;;;;;;;;21.00;73.90;;;;;;5095236;28;20014;-66
2023/08/15 04:53:26;;;;;;;;;;;21.00;73.90;;;;;;5095128;28;19919;-66
2023/08/15 04:55:52;;;;;;;;;;;21.10;74.00;;;;;;5094886;28;19978;-70
2023/08/15 04:58:17;;;;;;;;;;;21.00;74.00;;;;;;5112898;28;20398;-65
2023/08/15 05:00:43;;;;;;;;;;;21.00;74.00;;;;;;5112896;28;19958;-65
2023/08/15 05:03:08;;;;;;;;;;;21.00;74.00;;;;;;5095020;28;19935;-65
2023/08/15 05:05:34;;;;;;;;;;;21.00;74.10;;;;;;5095062;28;19920;-66
2023/08/15 05:08:00;;;;;;;;;;;21.00;74.10;;;;;;5095039;28;20290;-65
2023/08/15 05:10:25;;;;;;;;;;;21.00;74.10;;;;;;5094727;28;19919;-70
2023/08/15 05:12:51;;;;;;;;;;;21.00;74.10;;;;;;5094921;28;20377;-65
2023/08/15 05:15:16;;;;;;;;;;;21.10;74.10;;;;;;5094661;28;19931;-70
2023/08/15 05:17:43;;;;;;;;;;;21.00;74.10;;;;;;5112964;28;19920;-66
2023/08/15 05:20:09;;;;;;;;;;;21.00;74.10;;;;;;5094225;28;19930;-65
2023/08/15 05:22:35;;;;;;;;;;;21.00;74.20;;;;;;5094500;28;20397;-65
2023/08/15 05:25:00;;;;;;;;;;;21.00;74.10;;;;;;5128602;28;19988;-65
2023/08/15 05:27:26;;;;;;;;;;;21.00;74.20;;;;;;5128913;28;19919;-65
2023/08/15 05:29:52;;;;;;;;;;;21.00;74.10;;;;;;5094378;28;19927;-65
2023/08/15 05:32:17;;;;;;;;;;;21.00;74.20;;;;;;5112664;28;19920;-70
2023/08/15 05:34:43;;;;;;;;;;;21.00;74.20;;;;;;5094703;28;19980;-65
2023/08/15 05:37:08;;;;;;;;;;;21.00;74.20;;;;;;5094407;28;19951;-65
2023/08/15 05:39:34;;;;;;;;;;;21.00;74.20;;;;;;5094279;28;20335;-65
2023/08/15 05:41:59;;;;;;;;;;;21.00;74.30;;;;;;5094672;28;19984;-65
2023/08/15 05:44:25;;;;;;;;;;;21.00;74.20;;;;;;5112454;28;20367;-65
2023/08/15 05:46:50;;;;;;;;;;;21.00;74.30;;;;;;5112491;28;20391;-66
2023/08/15 05:49:16;;;;;;;;;;;21.00;74.20;;;;;;5112484;28;19920;-69
2023/08/15 05:51:41;;;;;;;;;;;21.00;74.30;;;;;;5112550;28;20037;-65
2023/08/15 05:54:07;;;;;;;;;;;21.00;74.20;;;;;;5094149;28;19920;-66
2023/08/15 05:56:32;;;;;;;;;;;21.00;74.30;;;;;;5077731;28;20024;-65
2023/08/15 05:58:58;;;;;;;;;;;21.00;74.30;;;;;;5094152;28;20436;-66
2023/08/15 06:01:23;;;;;;;;;;;21.00;74.30;;;;;;5094001;28;19924;-65
2023/08/15 06:03:49;;;;;;;;;;;21.00;74.30;;;;;;5094095;28;19969;-65
2023/08/15 06:06:14;;;;;;;;;;;21.00;74.40;;;;;;5094185;28;19957;-66
2023/08/15 06:08:40;;;;;;;;;;;21.00;74.30;;;;;;5098188;28;19974;-65
2023/08/15 06:11:05;;;;;;;;;;;21.00;74.40;;;;;;5097901;28;19920;-66
2023/08/15 06:13:31;;;;;;;;;;;21.00;74.40;;;;;;5098144;28;19923;-66
2023/08/15 06:15:56;;;;;;;;;;;21.00;74.40;;;;;;5115998;28;20018;-65
2023/08/15 06:18:22;;;;;;;;;;;21.00;74.40;;;;;;5098080;28;19920;-65
2023/08/15 06:20:49;;;;;;;;;;;21.00;74.40;;;;;;5097333;28;19924;-65
2023/08/15 06:23:14;;;;;;;;;;;21.00;74.40;;;;;;5098067;28;19926;-65
2023/08/15 06:25:40;;;;;;;;;;;21.00;74.40;;;;;;5097951;28;19924;-66
2023/08/15 06:28:07;;;;;;;;;;;21.00;74.40;;;;;;5115859;28;19924;-69
2023/08/15 06:30:32;;;;;;;;;;;21.00;74.40;;;;;;5097716;28;19963;-69
2023/08/15 06:32:58;;;;;;;;;;;21.00;74.40;;;;;;5097379;28;20429;-66
2023/08/15 06:35:28;;;;;;;;;;;21.00;74.40;;;;;;5115680;28;19920;-65
2023/08/15 06:37:54;;;;;;;;;;;21.00;74.50;;;;;;5097805;28;20291;-65
2023/08/15 06:40:19;;;;;;;;;;;21.00;74.40;;;;;;5097381;28;19930;-66
2023/08/15 06:42:45;;;;;;;;;;;21.00;74.50;;;;;;5097588;28;20354;-65
2023/08/15 06:45:11;;;;;;;;;;;20.90;74.40;;;;;;5097511;28;19927;-65
2023/08/15 06:47:37;;;;;;;;;;;21.00;74.50;;;;;;5097486;28;20061;-66
2023/08/15 06:50:03;;;;;;;;;;;21.00;74.50;;;;;;5115623;28;20006;-65
2023/08/15 06:52:29;;;;;;;;;;;20.90;74.40;;;;;;5097347;28;19920;-66
2023/08/15 06:54:54;;;;;;;;;;;21.00;74.50;;;;;;5097002;28;19927;-66
2023/08/15 06:57:19;;;;;;;;;;;20.90;74.50;;;;;;5096922;28;19970;-65
2023/08/15 06:59:45;;;;;;;;;;;21.00;74.50;;;;;;5115181;28;20293;-66
2023/08/15 07:02:10;;;;;;;;;;;21.00;74.50;;;;;;5115090;28;19927;-65
2023/08/15 07:04:40;;;;;;;;;;;21.00;74.50;;;;;;5097269;28;20438;-65
2023/08/15 07:07:08;;;;;;;;;;;20.90;74.50;;;;;;5115283;28;19923;-65
2023/08/15 07:09:35;;;;;;;;;;;21.00;74.50;;;;;;5097178;28;20018;-65
2023/08/15 07:12:01;;;;;;;;;;;20.90;74.50;;;;;;5096800;28;19958;-66
2023/08/15 07:14:27;;;;;;;;;;;20.90;74.50;;;;;;5131223;27;19927;-66
2023/08/15 07:16:52;;;;;;;;;;;21.00;74.50;;;;;;5096594;28;19980;-65
2023/08/15 07:19:18;;;;;;;;;;;21.00;74.60;;;;;;5097132;28;20326;-65
2023/08/15 07:21:45;;;;;;;;;;;21.00;74.60;;;;;;5096227;28;19923;-65
2023/08/15 07:24:11;;;;;;;;;;;21.00;74.60;;;;;;5115093;28;19919;-65
2023/08/15 07:26:36;;;;;;;;;;;21.00;74.60;;;;;;5096746;28;19972;-66
2023/08/15 07:29:02;;;;;;;;;;;21.00;74.60;;;;;;5096410;28;19920;-65
2023/08/15 07:31:28;;;;;;;;;;;21.00;74.60;;;;;;5114641;28;19919;-70
2023/08/15 07:33:53;;;;;;;;;;;21.00;74.60;;;;;;5114486;28;19934;-65
2023/08/15 07:36:19;;;;;;;;;;;20.90;74.60;;;;;;5114766;28;20394;-65
2023/08/15 07:38:44;;;;;;;;;;;21.00;74.60;;;;;;5114640;28;19919;-65
2023/08/15 07:41:09;;;;;;;;;;;21.00;74.70;;;;;;5096113;28;20442;-66
2023/08/15 07:43:35;;;;;;;;;;;21.00;74.60;;;;;;5096075;28;19920;-66
2023/08/15 07:46:00;;;;;;;;;;;20.90;74.60;;;;;;5114433;28;19920;-66
2023/08/15 07:48:26;;;;;;;;;;;20.90;74.70;;;;;;5114225;28;20381;-65
2023/08/15 07:50:51;;;;;;;;;;;20.90;74.60;;;;;;5130212;27;19920;-65
2023/08/15 07:53:17;;;;;;;;;;;20.90;74.60;;;;;;5130366;27;19920;-65
2023/08/15 07:55:42;;;;;;;;;;;20.90;74.70;;;;;;5114200;28;20508;-71
2023/08/15 07:58:08;;;;;;;;;;;20.90;74.60;;;;;;5096084;28;19927;-65
2023/08/15 08:00:33;;;;;;;;;;;20.90;74.60;;;;;;5130154;27;20022;-65
2023/08/15 08:02:59;;;;;;;;;;;20.90;74.70;;;;;;5113884;28;20287;-66
2023/08/15 08:05:25;;;;;;;;;;;21.00;74.70;;;;;;5114237;28;20297;-65
2023/08/15 08:07:51;;;;;;;;;;;21.00;74.70;;;;;;5095222;28;19920;-65
2023/08/15 08:10:16;;;;;;;;;;;21.00;74.70;;;;;;5095990;28;19967;-65
2023/08/15 08:12:42;;;;;;;;;;;21.00;74.70;;;;;;5095713;28;19924;-66
2023/08/15 08:15:08;;;;;;;;;;;20.90;74.70;;;;;;5095498;28;19998;-65
2023/08/15 08:17:33;;;;;;;;;;;21.00;74.80;;;;;;5096039;28;19955;-65
2023/08/15 08:19:59;;;;;;;;;;;20.90;74.70;;;;;;5094988;28;19924;-65
2023/08/15 08:22:24;;;;;;;;;;;20.90;75.50;;;;;;5095760;28;19920;-65
2023/08/15 08:24:50;;;;;;;;;;;21.00;74.80;;;;;;5113693;28;19919;-70
2023/08/15 08:27:16;;;;;;;;;;;20.90;74.70;;;;;;5095657;28;20020;-65
2023/08/15 08:29:41;;;;;;;;;;;21.00;74.80;;;;;;5094979;28;19920;-64
2023/08/15 08:32:07;;;;;;;;;;;20.90;74.70;;;;;;5113537;28;20003;-65
2023/08/15 08:34:33;;;;;;;;;;;21.00;75.50;;;;;;5113379;28;19928;-65
2023/08/15 08:36:58;;;;;;;;;;;20.90;74.70;;;;;;5095210;28;19963;-65
2023/08/15 08:39:24;;;;;;;;;;;20.90;74.80;;;;;;5095327;28;19942;-65
2023/08/15 08:41:49;;;;;;;;;;;20.90;74.80;;;;;;5094974;28;19924;-65
2023/08/15 08:44:16;;;;;;;;;;;21.00;74.80;;;;;;5095149;28;19920;-65
2023/08/15 08:46:42;;;;;;;;;;;21.00;74.90;;;;;;5095390;28;20003;-65
2023/08/15 08:49:08;;;;;;;;;;;21.00;74.90;;;;;;5113201;28;19979;-66
2023/08/15 08:51:34;;;;;;;;;;;21.00;74.90;;;;;;5095269;28;19920;-69
2023/08/15 08:53:59;;;;;;;;;;;21.00;74.90;;;;;;5094946;28;19974;-65
2023/08/15 08:56:25;;;;;;;;;;;21.00;74.80;;;;;;5113189;28;19995;-65
2023/08/15 08:58:58;;;;;;;;;;;21.00;74.80;;;;;;5113114;28;20286;-65
2023/08/15 09:01:24;;;;;;;;;;;21.00;74.80;;;;;;5077723;28;19973;-65
2023/08/15 09:03:49;;;;;;;;;;;21.00;74.80;;;;;;5128834;27;19919;-69
2023/08/15 09:06:15;;;;;;;;;;;21.00;74.80;;;;;;5094835;28;20312;-65
2023/08/15 09:08:40;;;;;;;;;;;21.00;74.70;;;;;;5094706;28;20010;-65
2023/08/15 09:11:06;;;;;;;;;;;21.00;74.70;;;;;;5128709;27;20286;-65
2023/08/15 09:13:31;;;;;;;;;;;21.00;74.70;;;;;;5094960;28;19969;-65
2023/08/15 09:15:59;;;;;;;;;;;21.00;74.70;;;;;;5112852;28;19920;-65
2023/08/15 09:18:26;;;;;;;;;;;21.00;74.60;;;;;;5112833;28;19942;-69
2023/08/15 09:20:52;;;;;;;;;;;21.00;74.60;;;;;;5094014;28;19955;-65
2023/08/15 09:23:17;;;;;;;;;;;21.00;74.60;;;;;;5094536;28;19970;-65
2023/08/15 09:25:43;;;;;;;;;;;21.00;74.60;;;;;;5128501;28;19923;-65
2023/08/15 09:28:08;;;;;;;;;;;21.00;74.50;;;;;;5094476;28;19920;-65
2023/08/15 09:30:34;;;;;;;;;;;21.00;74.60;;;;;;5094647;28;19972;-65
2023/08/15 09:33:01;;;;;;;;;;;21.10;74.60;;;;;;5094410;28;19926;-65
2023/08/15 09:35:26;;;;;;;;;;;21.10;74.50;;;;;;5094641;28;19920;-65
2023/08/15 09:37:52;;;;;;;;;;;21.10;74.50;;;;;;5094575;28;19920;-65
2023/08/15 09:40:20;;;;;;;;;;;21.10;74.50;;;;;;5112525;28;20309;-65
2023/08/15 09:42:46;;;;;;;;;;;21.10;74.50;;;;;;5097064;28;19926;-65
2023/08/15 09:45:13;;;;;;;;;;;21.10;74.50;;;;;;5116831;28;19920;-65
2023/08/15 09:47:39;;;;;;;;;;;21.10;74.50;;;;;;5098604;28;19927;-65
2023/08/15 09:50:06;;;;;;;;;;;21.10;74.50;;;;;;5098656;28;19919;-65
2023/08/15 09:52:33;;;;;;;;;;;21.00;74.50;;;;;;5116955;28;20381;-65
2023/08/15 09:54:58;;;;;;;;;;;21.10;74.50;;;;;;5132576;27;19927;-65
2023/08/15 09:57:24;;;;;;;;;;;21.10;74.40;;;;;;5132556;27;19920;-65
2023/08/15 09:59:49;;;;;;;;;;;21.10;74.50;;;;;;5098364;28;20041;-65
2023/08/15 10:02:20;;;;;;;;;;;21.10;74.50;;;;;;5098259;28;20382;-65
2023/08/15 10:04:47;;;;;;;;;;;21.10;74.40;;;;;;5098333;28;20251;-65
2023/08/15 10:07:13;;;;;;;;;;;21.10;74.30;;;;;;5098308;28;20018;-65
2023/08/15 10:09:39;;;;;;;;;;;21.10;74.30;;;;;;5116384;28;20010;-65
2023/08/15 10:12:05;;;;;;;;;;;21.10;74.40;;;;;;5097911;28;19972;-65
2023/08/15 10:14:31;;;;;;;;;;;21.10;74.40;;;;;;5116138;28;19965;-65
2023/08/15 10:16:56;;;;;;;;;;;21.10;74.40;;;;;;5116057;28;20316;-65
2023/08/15 10:19:28;;;;;;;;;;;21.10;74.40;;;;;;5116040;28;19920;-65
2023/08/15 10:21:54;;;;;;;;;;;21.10;74.30;;;;;;5097667;28;19931;-64
2023/08/15 10:24:21;;;;;;;;;;;21.10;74.40;;;;;;5115883;28;19920;-65
2023/08/15 10:26:46;;;;;;;;;;;21.10;74.40;;;;;;5097998;28;19919;-66
2023/08/15 10:29:12;;;;;;;;;;;21.10;74.40;;;;;;5115941;28;20010;-65
2023/08/15 10:31:39;;;;;;;;;;;21.10;74.40;;;;;;5097342;28;20393;-64
2023/08/15 10:34:07;;;;;;;;;;;21.10;74.40;;;;;;5097683;28;20007;-65
2023/08/15 10:36:33;;;;;;;;;;;21.10;74.40;;;;;;5097466;28;20399;-65
2023/08/15 10:39:06;;;;;;;;;;;21.10;74.40;;;;;;5097620;28;19969;-65
2023/08/15 10:41:33;;;;;;;;;;;21.10;74.40;;;;;;5115721;28;20308;-65
2023/08/15 10:44:02;;;;;;;;;;;21.10;74.40;;;;;;5097584;28;19919;-65
2023/08/15 10:46:29;;;;;;;;;;;21.10;74.40;;;;;;5097347;28;19920;-65
2023/08/15 10:48:58;;;;;;;;;;;21.10;74.40;;;;;;5115412;28;19919;-65
2023/08/15 10:51:26;;;;;;;;;;;21.10;74.40;;;;;;5097565;28;19927;-65
2023/08/15 10:53:52;;;;;;;;;;;21.10;74.40;;;;;;5096878;28;19926;-65
2023/08/15 10:56:19;;;;;;;;;;;21.10;74.40;;;;;;5115500;28;19919;-65
2023/08/15 10:58:45;;;;;;;;;;;21.10;74.40;;;;;;5097319;28;19920;-65
2023/08/15 11:01:11;;;;;;;;;;;21.10;74.40;;;;;;5097011;28;19969;-65
2023/08/15 11:03:37;;;;;;;;;;;21.10;74.40;;;;;;5097148;28;19923;-65
2023/08/15 11:06:11;;;;;;;;;;;21.10;74.40;;;;;;5131375;27;19926;-69
2023/08/15 11:08:41;;;;;;;;;;;21.10;74.40;;;;;;5115153;28;19930;-65
2023/08/15 11:11:06;;;;;;;;;;;21.10;74.40;;;;;;5115139;28;19965;-65
2023/08/15 11:13:37;;;;;;;;;;;21.10;74.40;;;;;;5097118;28;19920;-65
2023/08/15 11:16:02;;;;;;;;;;;21.10;74.40;;;;;;5115445;28;19927;-65
2023/08/15 11:18:28;;;;;;;;;;;21.10;74.40;;;;;;5114922;28;19920;-65
2023/08/15 11:20:53;;;;;;;;;;;21.10;74.40;;;;;;5114618;28;19924;-65
2023/08/15 11:23:20;;;;;;;;;;;21.10;74.40;;;;;;5115224;28;19920;-64
2023/08/15 11:25:46;;;;;;;;;;;21.10;74.40;;;;;;5114726;28;19923;-64
2023/08/15 11:28:11;;;;;;;;;;;21.10;74.40;;;;;;5114870;28;19927;-65
2023/08/15 11:30:37;;;;;;;;;;;21.10;74.40;;;;;;5096704;28;19919;-64
2023/08/15 11:33:03;;;;;;;;;;;21.10;74.40;;;;;;5096357;28;19969;-65
2023/08/15 11:35:28;;;;;;;;;;;21.10;74.40;;;;;;5114584;28;19920;-64
2023/08/15 11:37:54;;;;;;;;;;;21.10;74.40;;;;;;5096711;28;19919;-70
2023/08/15 11:40:19;;;;;;;;;;;21.10;74.40;;;;;;5114392;28;20294;-70
2023/08/15 11:42:45;;;;;;;;;;;21.10;74.40;;;;;;5096608;28;20195;-65
2023/08/15 11:47:53;;;;;;;;;;;21.10;74.40;;;;;;5110192;27;19919;-64
2023/08/15 11:50:19;;;;;;;;;;;21.10;75.10;;;;;;5110162;28;20294;-64
2023/08/15 11:52:45;;;;;;;;;;;21.20;74.40;;;;;;5109222;28;20003;-65
2023/08/15 11:55:11;;;;;;;;;;;21.10;74.40;;;;;;5108829;28;19920;-65
2023/08/15 11:57:37;;;;;;;;;;;21.10;74.40;;;;;;5108892;28;19935;-65
2023/08/15 12:00:03;;;;;;;;;;;21.10;74.40;;;;;;5109145;28;19930;-65
2023/08/15 12:02:29;;;;;;;;;;;21.20;74.50;;;;;;5108581;28;19927;-64
2023/08/15 12:04:54;;;;;;;;;;;21.20;74.50;;;;;;5109244;28;19924;-64
2023/08/15 12:07:20;;;;;;;;;;;21.10;74.50;;;;;;5107895;28;20403;-65
2023/08/15 12:09:46;;;;;;;;;;;21.10;74.40;;;;;;5109863;28;19926;-65
2023/08/15 12:12:19;;;;;;;;;;;21.20;74.60;;;;;;5108602;28;19956;-65
2023/08/15 12:14:45;;;;;;;;;;;21.20;74.50;;;;;;5109814;28;19950;-64
2023/08/15 12:17:10;;;;;;;;;;;21.10;74.40;;;;;;5109673;28;19919;-65
2023/08/15 12:19:36;;;;;;;;;;;21.20;74.50;;;;;;5108682;28;20368;-65
2023/08/15 12:22:02;;;;;;;;;;;21.20;74.50;;;;;;5108357;28;19945;-65
2023/08/15 12:24:28;;;;;;;;;;;21.20;74.50;;;;;;5108379;28;19977;-65
2023/08/15 12:26:53;;;;;;;;;;;21.20;74.50;;;;;;5108237;28;19959;-65
2023/08/15 12:29:19;;;;;;;;;;;21.20;74.50;;;;;;5109585;28;19927;-65
2023/08/15 12:31:44;;;;;;;;;;;21.20;74.60;;;;;;5109399;28;19920;-65
2023/08/15 12:34:10;;;;;;;;;;;21.20;74.50;;;;;;5108422;28;19920;-65
2023/08/15 12:36:36;;;;;;;;;;;21.20;74.60;;;;;;5108025;28;20436;-65
2023/08/15 12:39:01;;;;;;;;;;;21.20;74.50;;;;;;5109373;28;19973;-65
2023/08/15 12:41:27;;;;;;;;;;;21.10;74.40;;;;;;5109495;28;19920;-66
2023/08/15 12:43:53;;;;;;;;;;;21.20;74.50;;;;;;5109169;28;19924;-65
2023/08/15 12:46:18;;;;;;;;;;;21.20;74.50;;;;;;5116816;28;19988;-65
2023/08/15 12:48:44;;;;;;;;;;;21.20;74.50;;;;;;5111155;28;19927;-65
2023/08/15 12:51:09;;;;;;;;;;;21.20;74.50;;;;;;5129557;28;19927;-65
2023/08/15 12:53:35;;;;;;;;;;;21.20;74.60;;;;;;5111149;28;20331;-65
2023/08/15 12:56:00;;;;;;;;;;;21.20;74.50;;;;;;5129607;27;19964;-65
2023/08/15 12:58:26;;;;;;;;;;;21.20;74.50;;;;;;5101516;28;19920;-65
2023/08/15 13:00:51;;;;;;;;;;;21.20;74.50;;;;;;5097746;28;19927;-65
2023/08/15 13:03:18;;;;;;;;;;;21.20;74.50;;;;;;5097303;28;20068;-65
2023/08/15 13:05:44;;;;;;;;;;;21.20;74.50;;;;;;5097498;28;20362;-65
2023/08/15 13:08:09;;;;;;;;;;;21.20;74.60;;;;;;5097256;28;20003;-65
2023/08/15 13:10:35;;;;;;;;;;;21.20;74.60;;;;;;5131717;27;19920;-65
2023/08/15 13:13:00;;;;;;;;;;;21.20;74.60;;;;;;5097373;28;19927;-70
2023/08/15 13:15:26;;;;;;;;;;;21.20;74.60;;;;;;5097184;28;19924;-65
2023/08/15 13:17:51;;;;;;;;;;;21.20;74.60;;;;;;5115483;28;20393;-65
2023/08/15 13:20:16;;;;;;;;;;;21.30;74.60;;;;;;5097297;28;19934;-65
2023/08/15 13:22:42;;;;;;;;;;;21.20;74.50;;;;;;5097034;28;19919;-70
2023/08/15 13:25:07;;;;;;;;;;;21.30;74.60;;;;;;5096999;28;19942;-65
2023/08/15 13:27:33;;;;;;;;;;;21.20;74.50;;;;;;5115165;28;19923;-65
2023/08/15 13:29:58;;;;;;;;;;;21.20;74.50;;;;;;5097287;28;19945;-71
2023/08/15 13:32:24;;;;;;;;;;;21.20;74.60;;;;;;5097091;28;20006;-70
2023/08/15 13:34:50;;;;;;;;;;;21.30;74.60;;;;;;5097077;28;19920;-65
2023/08/15 13:37:15;;;;;;;;;;;21.30;74.60;;;;;;5097071;28;20377;-66
2023/08/15 13:39:41;;;;;;;;;;;21.30;74.60;;;;;;5096663;28;20272;-65
2023/08/15 13:42:06;;;;;;;;;;;21.30;74.60;;;;;;5096675;28;19989;-65
2023/08/15 13:44:31;;;;;;;;;;;21.30;74.60;;;;;;5096874;28;19920;-65
2023/08/15 13:46:57;;;;;;;;;;;21.30;74.60;;;;;;5114537;28;19969;-65
2023/08/15 13:49:22;;;;;;;;;;;21.30;74.60;;;;;;5114687;28;19923;-65
2023/08/15 13:51:48;;;;;;;;;;;21.30;74.60;;;;;;5130806;27;20015;-65
2023/08/15 13:54:14;;;;;;;;;;;21.30;74.60;;;;;;5096641;28;19927;-65
2023/08/15 13:56:39;;;;;;;;;;;21.30;74.60;;;;;;5096723;28;19919;-65
2023/08/15 13:59:05;;;;;;;;;;;21.30;74.60;;;;;;5114618;28;19920;-65
2023/08/15 14:01:33;;;;;;;;;;;21.30;74.70;;;;;;5096473;28;20390;-65
2023/08/15 14:03:58;;;;;;;;;;;21.30;74.70;;;;;;5096193;28;19919;-65
2023/08/15 14:06:24;;;;;;;;;;;21.30;74.60;;;;;;5114255;28;19924;-65
2023/08/15 14:08:49;;;;;;;;;;;21.30;74.60;;;;;;5113911;28;19963;-65
2023/08/15 14:11:15;;;;;;;;;;;21.30;74.60;;;;;;5095891;28;20202;-65
2023/08/15 14:13:42;;;;;;;;;;;21.30;74.70;;;;;;5114389;28;20365;-65